sensor_id;sensor_type;location;lat;lon;timestamp;pressure;altitude;pressure_sealevel;temperature
20867;BMP280;10593;48.398;10.698;2022-12-05T00:01:19;95905.00;;;9.31
20867;BMP280;10593;48.398;10.698;2022-12-05T00:03:47;95910.16;;;9.29
20867;BMP280;10593;48.398;10.698;2022-12-05T00:06:14;95892.25;;;9.28
20867;BMP280;10593;48.398;10.698;2022-12-05T00:08:39;95893.06;;;9.28
20867;BMP280;10593;48.398;10.698;2022-12-05T00:11:22;95902.50;;;9.28
20867;BMP280;10593;48.398;10.698;2022-12-05T00:13:49;95901.63;;;9.29
20867;BMP280;10593;48.398;10.698;2022-12-05T00:16:20;95904.19;;;9.29
20867;BMP280;10593;48.398;10.698;2022-12-05T00:18:46;95911.03;;;9.28
20867;BMP280;10593;48.398;10.698;2022-12-05T00:21:23;95915.28;;;9.29
20867;BMP280;10593;48.398;10.698;2022-12-05T00:23:51;95903.31;;;9.28
20867;BMP280;10593;48.398;10.698;2022-12-05T00:26:18;95911.03;;;9.28
20867;BMP280;10593;48.398;10.698;2022-12-05T00:28:44;95911.03;;;9.28
20867;BMP280;10593;48.398;10.698;2022-12-05T00:31:15;95921.28;;;9.28
20867;BMP280;10593;48.398;10.698;2022-12-05T00:33:42;95910.19;;;9.28
20867;BMP280;10593;48.398;10.698;2022-12-05T00:36:18;95910.19;;;9.28
20867;BMP280;10593;48.398;10.698;2022-12-05T00:38:44;95905.06;;;9.28
20867;BMP280;10593;48.398;10.698;2022-12-05T00:41:17;95918.72;;;9.27
20867;BMP280;10593;48.398;10.698;2022-12-05T00:43:43;95929.03;;;9.25
20867;BMP280;10593;48.398;10.698;2022-12-05T00:46:23;95920.47;;;9.26
20867;BMP280;10593;48.398;10.698;2022-12-05T00:48:52;95925.59;;;9.26
20867;BMP280;10593;48.398;10.698;2022-12-05T00:51:26;95927.28;;;9.26
20867;BMP280;10593;48.398;10.698;2022-12-05T00:53:52;95934.97;;;9.26
20867;BMP280;10593;48.398;10.698;2022-12-05T00:56:21;95936.72;;;9.25
20867;BMP280;10593;48.398;10.698;2022-12-05T00:58:49;95943.53;;;9.25
20867;BMP280;10593;48.398;10.698;2022-12-05T01:01:29;95955.47;;;9.26
20867;BMP280;10593;48.398;10.698;2022-12-05T01:03:59;95971.75;;;9.25
20867;BMP280;10593;48.398;10.698;2022-12-05T01:06:26;95983.69;;;9.26
20867;BMP280;10593;48.398;10.698;2022-12-05T01:08:56;95971.75;;;9.25
20867;BMP280;10593;48.398;10.698;2022-12-05T01:11:23;95976.03;;;9.24
20867;BMP280;10593;48.398;10.698;2022-12-05T01:13:49;95970.06;;;9.24
20867;BMP280;10593;48.398;10.698;2022-12-05T01:16:29;95975.19;;;9.24
20867;BMP280;10593;48.398;10.698;2022-12-05T01:18:58;95976.94;;;9.22
20867;BMP280;10593;48.398;10.698;2022-12-05T01:21:24;95979.47;;;9.23
20867;BMP280;10593;48.398;10.698;2022-12-05T01:23:50;95996.56;;;9.23
20867;BMP280;10593;48.398;10.698;2022-12-05T01:26:18;96003.41;;;9.22
20867;BMP280;10593;48.398;10.698;2022-12-05T01:28:45;96024.75;;;9.23
20867;BMP280;10593;48.398;10.698;2022-12-05T01:31:30;96025.63;;;9.22
20867;BMP280;10593;48.398;10.698;2022-12-05T01:33:59;96040.19;;;9.21
20867;BMP280;10593;48.398;10.698;2022-12-05T01:36:26;96024.78;;;9.21
20867;BMP280;10593;48.398;10.698;2022-12-05T01:38:54;96023.94;;;9.19
20867;BMP280;10593;48.398;10.698;2022-12-05T01:41:24;96041.88;;;9.21
20867;BMP280;10593;48.398;10.698;2022-12-05T01:43:54;96054.72;;;9.19
20867;BMP280;10593;48.398;10.698;2022-12-05T01:46:20;96055.56;;;9.20
20867;BMP280;10593;48.398;10.698;2022-12-05T01:48:46;96030.81;;;9.19
20867;BMP280;10593;48.398;10.698;2022-12-05T01:51:12;96021.44;;;9.18
20867;BMP280;10593;48.398;10.698;2022-12-05T01:53:38;96017.19;;;9.17
20867;BMP280;10593;48.398;10.698;2022-12-05T01:56:04;96006.94;;;9.17
20867;BMP280;10593;48.398;10.698;2022-12-05T01:58:36;96013.75;;;9.16
20867;BMP280;10593;48.398;10.698;2022-12-05T02:01:03;96032.56;;;9.15
20867;BMP280;10593;48.398;10.698;2022-12-05T02:03:29;96053.06;;;9.15
20867;BMP280;10593;48.398;10.698;2022-12-05T02:05:57;96056.50;;;9.16
20867;BMP280;10593;48.398;10.698;2022-12-05T02:08:28;96068.44;;;9.15
20867;BMP280;10593;48.398;10.698;2022-12-05T02:10:56;96061.63;;;9.16
20867;BMP280;10593;48.398;10.698;2022-12-05T02:16:47;96077.00;;;9.13
20867;BMP280;10593;48.398;10.698;2022-12-05T02:25:35;96078.75;;;9.11
20867;BMP280;10593;48.398;10.698;2022-12-05T02:28:32;96074.50;;;9.10
20867;BMP280;10593;48.398;10.698;2022-12-05T02:31:24;96077.94;;;9.09
20867;BMP280;10593;48.398;10.698;2022-12-05T02:34:04;96079.69;;;9.08
20867;BMP280;10593;48.398;10.698;2022-12-05T02:37:17;96085.63;;;9.09
20867;BMP280;10593;48.398;10.698;2022-12-05T02:39:58;96079.69;;;9.08
20867;BMP280;10593;48.398;10.698;2022-12-05T02:42:44;96083.06;;;9.09
20867;BMP280;10593;48.398;10.698;2022-12-05T02:45:17;96089.06;;;9.08
20867;BMP280;10593;48.398;10.698;2022-12-05T02:47:50;96079.69;;;9.08
20867;BMP280;10593;48.398;10.698;2022-12-05T02:50:27;96072.81;;;9.09
20867;BMP280;10593;48.398;10.698;2022-12-05T02:52:57;96083.06;;;9.09
20867;BMP280;10593;48.398;10.698;2022-12-05T02:55:27;96083.94;;;9.09
20867;BMP280;10593;48.398;10.698;2022-12-05T02:57:59;96085.63;;;9.10
20867;BMP280;10593;48.398;10.698;2022-12-05T03:00:26;96090.75;;;9.09
20867;BMP280;10593;48.398;10.698;2022-12-05T03:02:57;96089.88;;;9.10
20867;BMP280;10593;48.398;10.698;2022-12-05T03:06:10;96088.19;;;9.09
20867;BMP280;10593;48.398;10.698;2022-12-05T03:08:53;96100.19;;;9.08
20867;BMP280;10593;48.398;10.698;2022-12-05T03:11:21;96101.03;;;9.07
20867;BMP280;10593;48.398;10.698;2022-12-05T03:13:57;96108.69;;;9.09
20867;BMP280;10593;48.398;10.698;2022-12-05T03:16:43;96092.50;;;9.08
20867;BMP280;10593;48.398;10.698;2022-12-05T03:19:25;96097.63;;;9.07
20867;BMP280;10593;48.398;10.698;2022-12-05T03:22:02;96106.16;;;9.07
20867;BMP280;10593;48.398;10.698;2022-12-05T03:24:36;96108.75;;;9.06
20867;BMP280;10593;48.398;10.698;2022-12-05T03:27:36;96125.81;;;9.07
20867;BMP280;10593;48.398;10.698;2022-12-05T03:30:11;96102.75;;;9.05
20867;BMP280;10593;48.398;10.698;2022-12-05T03:33:14;96111.31;;;9.04
20867;BMP280;10593;48.398;10.698;2022-12-05T03:44:14;96113.91;;;9.03
20867;BMP280;10593;48.398;10.698;2022-12-05T03:47:11;96127.59;;;9.02
20867;BMP280;10593;48.398;10.698;2022-12-05T03:49:46;96125.03;;;9.02
20867;BMP280;10593;48.398;10.698;2022-12-05T03:52:46;96136.13;;;9.02
20867;BMP280;10593;48.398;10.698;2022-12-05T03:55:14;96128.44;;;9.02
20867;BMP280;10593;48.398;10.698;2022-12-05T03:57:55;96128.44;;;9.04
20867;BMP280;10593;48.398;10.698;2022-12-05T04:00:23;96122.44;;;9.05
20867;BMP280;10593;48.398;10.698;2022-12-05T04:03:06;96119.88;;;9.05
20867;BMP280;10593;48.398;10.698;2022-12-05T04:06:09;96125.00;;;9.03
20867;BMP280;10593;48.398;10.698;2022-12-05T04:08:51;96117.31;;;9.03
20867;BMP280;10593;48.398;10.698;2022-12-05T04:11:22;96115.63;;;9.04
20867;BMP280;10593;48.398;10.698;2022-12-05T04:13:54;96122.44;;;9.05
20867;BMP280;10593;48.398;10.698;2022-12-05T04:17:01;96119.00;;;9.04
20867;BMP280;10593;48.398;10.698;2022-12-05T04:19:50;96135.25;;;9.03
20867;BMP280;10593;48.398;10.698;2022-12-05T04:22:37;96131.88;;;9.01
20867;BMP280;10593;48.398;10.698;2022-12-05T04:25:08;96131.84;;;9.03
20867;BMP280;10593;48.398;10.698;2022-12-05T04:28:35;96123.31;;;9.02
20867;BMP280;10593;48.398;10.698;2022-12-05T04:31:10;96115.66;;;9.01
20867;BMP280;10593;48.398;10.698;2022-12-05T04:33:47;96113.94;;;9.01
20867;BMP280;10593;48.398;10.698;2022-12-05T04:36:50;96114.78;;;9.02
20867;BMP280;10593;48.398;10.698;2022-12-05T04:39:28;96123.34;;;9.01
20867;BMP280;10593;48.398;10.698;2022-12-05T04:42:00;96127.56;;;9.03
20867;BMP280;10593;48.398;10.698;2022-12-05T04:44:34;96122.44;;;9.03
20867;BMP280;10593;48.398;10.698;2022-12-05T04:47:04;96126.69;;;9.04
20867;BMP280;10593;48.398;10.698;2022-12-05T04:49:34;96128.38;;;9.05
20867;BMP280;10593;48.398;10.698;2022-12-05T04:52:06;96123.25;;;9.07
20867;BMP280;10593;48.398;10.698;2022-12-05T04:54:45;96123.25;;;9.08
20867;BMP280;10593;48.398;10.698;2022-12-05T04:57:32;96123.25;;;9.07
20867;BMP280;10593;48.398;10.698;2022-12-05T05:00:01;96126.69;;;9.07
20867;BMP280;10593;48.398;10.698;2022-12-05T05:02:43;96135.19;;;9.08
20867;BMP280;10593;48.398;10.698;2022-12-05T05:05:15;96132.63;;;9.08
20867;BMP280;10593;48.398;10.698;2022-12-05T05:07:46;96136.88;;;9.09
20867;BMP280;10593;48.398;10.698;2022-12-05T05:10:16;96131.75;;;9.09
20867;BMP280;10593;48.398;10.698;2022-12-05T05:12:44;96130.06;;;9.09
20867;BMP280;10593;48.398;10.698;2022-12-05T05:15:10;96142.00;;;9.10
20867;BMP280;10593;48.398;10.698;2022-12-05T05:17:36;96138.56;;;9.11
20867;BMP280;10593;48.398;10.698;2022-12-05T05:20:02;96141.13;;;9.11
20867;BMP280;10593;48.398;10.698;2022-12-05T05:22:52;96150.53;;;9.11
20867;BMP280;10593;48.398;10.698;2022-12-05T05:25:18;96147.94;;;9.11
20867;BMP280;10593;48.398;10.698;2022-12-05T05:27:51;96153.09;;;9.11
20867;BMP280;10593;48.398;10.698;2022-12-05T05:30:20;96148.81;;;9.11
20867;BMP280;10593;48.398;10.698;2022-12-05T05:32:46;96143.66;;;9.13
20867;BMP280;10593;48.398;10.698;2022-12-05T05:35:13;96131.69;;;9.13
20867;BMP280;10593;48.398;10.698;2022-12-05T05:37:40;96135.97;;;9.13
20867;BMP280;10593;48.398;10.698;2022-12-05T05:40:11;96140.22;;;9.14
20867;BMP280;10593;48.398;10.698;2022-12-05T05:42:46;96137.66;;;9.14
20867;BMP280;10593;48.398;10.698;2022-12-05T05:45:14;96139.38;;;9.15
20867;BMP280;10593;48.398;10.698;2022-12-05T05:47:41;96141.09;;;9.14
20867;BMP280;10593;48.398;10.698;2022-12-05T05:50:08;96140.22;;;9.15
20867;BMP280;10593;48.398;10.698;2022-12-05T05:52:35;96140.22;;;9.15
20867;BMP280;10593;48.398;10.698;2022-12-05T05:55:02;96148.75;;;9.16
20867;BMP280;10593;48.398;10.698;2022-12-05T05:57:30;96150.47;;;9.15
20867;BMP280;10593;48.398;10.698;2022-12-05T05:59:55;96171.81;;;9.16
20867;BMP280;10593;48.398;10.698;2022-12-05T06:02:21;96170.09;;;9.16
20867;BMP280;10593;48.398;10.698;2022-12-05T06:04:47;96172.66;;;9.16
20867;BMP280;10593;48.398;10.698;2022-12-05T06:07:13;96176.09;;;9.17
20867;BMP280;10593;48.398;10.698;2022-12-05T06:09:39;96178.66;;;9.17
20867;BMP280;10593;48.398;10.698;2022-12-05T06:12:05;96183.78;;;9.17
20867;BMP280;10593;48.398;10.698;2022-12-05T06:14:31;96173.53;;;9.17
20867;BMP280;10593;48.398;10.698;2022-12-05T06:16:56;96182.03;;;9.17
20867;BMP280;10593;48.398;10.698;2022-12-05T06:19:22;96179.47;;;9.17
20867;BMP280;10593;48.398;10.698;2022-12-05T06:21:49;96178.59;;;9.18
20867;BMP280;10593;48.398;10.698;2022-12-05T06:24:16;96169.22;;;9.17
20867;BMP280;10593;48.398;10.698;2022-12-05T06:26:42;96182.03;;;9.19
20867;BMP280;10593;48.398;10.698;2022-12-05T06:29:08;96188.91;;;9.17
20867;BMP280;10593;48.398;10.698;2022-12-05T06:31:34;96182.91;;;9.18
20867;BMP280;10593;48.398;10.698;2022-12-05T06:34:03;96186.28;;;9.18
20867;BMP280;10593;48.398;10.698;2022-12-05T06:36:29;96190.59;;;9.18
20867;BMP280;10593;48.398;10.698;2022-12-05T06:38:59;96201.69;;;9.18
20867;BMP280;10593;48.398;10.698;2022-12-05T06:41:26;96197.41;;;9.19
20867;BMP280;10593;48.398;10.698;2022-12-05T06:43:57;96200.81;;;9.19
20867;BMP280;10593;48.398;10.698;2022-12-05T06:46:24;96203.38;;;9.19
20867;BMP280;10593;48.398;10.698;2022-12-05T06:48:58;96205.94;;;9.19
20867;BMP280;10593;48.398;10.698;2022-12-05T06:51:24;96199.09;;;9.18
20867;BMP280;10593;48.398;10.698;2022-12-05T06:53:50;96213.63;;;9.19
20867;BMP280;10593;48.398;10.698;2022-12-05T06:56:18;96217.91;;;9.19
20867;BMP280;10593;48.398;10.698;2022-12-05T06:58:47;96215.34;;;9.19
20867;BMP280;10593;48.398;10.698;2022-12-05T07:01:20;96219.59;;;9.21
20867;BMP280;10593;48.398;10.698;2022-12-05T07:04:10;96223.03;;;9.19
20867;BMP280;10593;48.398;10.698;2022-12-05T07:06:37;96221.34;;;9.18
20867;BMP280;10593;48.398;10.698;2022-12-05T07:09:04;96223.03;;;9.19
20867;BMP280;10593;48.398;10.698;2022-12-05T07:11:30;96230.69;;;9.20
20867;BMP280;10593;48.398;10.698;2022-12-05T07:13:55;96236.69;;;9.21
20867;BMP280;10593;48.398;10.698;2022-12-05T07:16:22;96233.25;;;9.20
20867;BMP280;10593;48.398;10.698;2022-12-05T07:18:48;96242.66;;;9.21
20867;BMP280;10593;48.398;10.698;2022-12-05T07:21:15;96240.94;;;9.22
20867;BMP280;10593;48.398;10.698;2022-12-05T07:23:44;96246.06;;;9.22
20867;BMP280;10593;48.398;10.698;2022-12-05T07:26:14;96240.94;;;9.22
20867;BMP280;10593;48.398;10.698;2022-12-05T07:28:39;96245.19;;;9.23
20867;BMP280;10593;48.398;10.698;2022-12-05T07:31:13;96246.88;;;9.24
20867;BMP280;10593;48.398;10.698;2022-12-05T07:33:39;96244.38;;;9.22
20867;BMP280;10593;48.398;10.698;2022-12-05T07:36:12;96246.88;;;9.24
20867;BMP280;10593;48.398;10.698;2022-12-05T07:38:39;96262.28;;;9.24
20867;BMP280;10593;48.398;10.698;2022-12-05T07:41:20;96258.84;;;9.25
20867;BMP280;10593;48.398;10.698;2022-12-05T07:43:46;96251.16;;;9.25
20867;BMP280;10593;48.398;10.698;2022-12-05T07:46:13;96257.13;;;9.25
20867;BMP280;10593;48.398;10.698;2022-12-05T07:48:39;96260.53;;;9.26
20867;BMP280;10593;48.398;10.698;2022-12-05T07:51:07;96257.09;;;9.27
20867;BMP280;10593;48.398;10.698;2022-12-05T07:53:34;96259.66;;;9.28
20867;BMP280;10593;48.398;10.698;2022-12-05T07:56:03;96268.22;;;9.29
20867;BMP280;10593;48.398;10.698;2022-12-05T07:58:32;96256.22;;;9.29
20867;BMP280;10593;48.398;10.698;2022-12-05T08:01:10;96256.22;;;9.29
20867;BMP280;10593;48.398;10.698;2022-12-05T08:03:37;96263.03;;;9.30
20867;BMP280;10593;48.398;10.698;2022-12-05T08:06:08;96265.59;;;9.32
20867;BMP280;10593;48.398;10.698;2022-12-05T08:08:34;96256.16;;;9.32
20867;BMP280;10593;48.398;10.698;2022-12-05T08:11:10;96253.59;;;9.34
20867;BMP280;10593;48.398;10.698;2022-12-05T08:13:37;96265.56;;;9.35
20867;BMP280;10593;48.398;10.698;2022-12-05T08:16:06;96264.69;;;9.36
20867;BMP280;10593;48.398;10.698;2022-12-05T08:18:34;96256.97;;;9.37
20867;BMP280;10593;48.398;10.698;2022-12-05T08:21:13;96260.38;;;9.38
20867;BMP280;10593;48.398;10.698;2022-12-05T08:23:41;96262.91;;;9.41
20867;BMP280;10593;48.398;10.698;2022-12-05T08:26:16;96271.44;;;9.41
20867;BMP280;10593;48.398;10.698;2022-12-05T08:28:43;96267.19;;;9.42
20867;BMP280;10593;48.398;10.698;2022-12-05T08:31:16;96274.00;;;9.43
20867;BMP280;10593;48.398;10.698;2022-12-05T08:33:42;96278.25;;;9.44
20867;BMP280;10593;48.398;10.698;2022-12-05T08:36:12;96276.53;;;9.46
20867;BMP280;10593;48.398;10.698;2022-12-05T08:38:40;96279.91;;;9.46
20867;BMP280;10593;48.398;10.698;2022-12-05T08:41:15;96278.22;;;9.48
20867;BMP280;10593;48.398;10.698;2022-12-05T08:43:43;96281.59;;;9.50
20867;BMP280;10593;48.398;10.698;2022-12-05T08:46:10;96291.00;;;9.51
20867;BMP280;10593;48.398;10.698;2022-12-05T08:48:36;96284.97;;;9.52
20867;BMP280;10593;48.398;10.698;2022-12-05T08:51:08;96287.50;;;9.54
20867;BMP280;10593;48.398;10.698;2022-12-05T08:53:36;96289.25;;;9.55
20867;BMP280;10593;48.398;10.698;2022-12-05T08:56:05;96290.06;;;9.57
20867;BMP280;10593;48.398;10.698;2022-12-05T08:58:31;96286.63;;;9.58
20867;BMP280;10593;48.398;10.698;2022-12-05T09:01:10;96301.16;;;9.59
20867;BMP280;10593;48.398;10.698;2022-12-05T09:03:37;96297.72;;;9.60
20867;BMP280;10593;48.398;10.698;2022-12-05T09:06:15;96303.66;;;9.62
20867;BMP280;10593;48.398;10.698;2022-12-05T09:08:42;96306.22;;;9.62
20867;BMP280;10593;48.398;10.698;2022-12-05T09:11:15;96316.44;;;9.65
20867;BMP280;10593;48.398;10.698;2022-12-05T09:13:41;96313.88;;;9.65
20867;BMP280;10593;48.398;10.698;2022-12-05T09:16:21;96316.38;;;9.68
20867;BMP280;10593;48.398;10.698;2022-12-05T09:18:49;96328.38;;;9.67
20867;BMP280;10593;48.398;10.698;2022-12-05T09:21:18;96321.50;;;9.69
20867;BMP280;10593;48.398;10.698;2022-12-05T09:23:45;96327.47;;;9.71
20867;BMP280;10593;48.398;10.698;2022-12-05T09:26:14;96328.34;;;9.72
20867;BMP280;10593;48.398;10.698;2022-12-05T09:28:41;96330.03;;;9.73
20867;BMP280;10593;48.398;10.698;2022-12-05T09:31:11;96332.56;;;9.74
20867;BMP280;10593;48.398;10.698;2022-12-05T09:33:38;96339.41;;;9.75
20867;BMP280;10593;48.398;10.698;2022-12-05T09:36:06;96338.53;;;9.76
20867;BMP280;10593;48.398;10.698;2022-12-05T09:38:32;96342.81;;;9.77
20867;BMP280;10593;48.398;10.698;2022-12-05T09:45:02;96327.41;;;9.74
20867;BMP280;10593;48.398;10.698;2022-12-05T09:47:44;96326.59;;;9.75
20867;BMP280;10593;48.398;10.698;2022-12-05T09:53:11;96329.09;;;9.78
20867;BMP280;10593;48.398;10.698;2022-12-05T09:55:48;96323.97;;;9.78
20867;BMP280;10593;48.398;10.698;2022-12-05T09:58:25;96329.06;;;9.80
20867;BMP280;10593;48.398;10.698;2022-12-05T10:01:16;96327.34;;;9.80
20867;BMP280;10593;48.398;10.698;2022-12-05T10:09:38;96324.72;;;9.85
20867;BMP280;10593;48.398;10.698;2022-12-05T10:15:41;96326.44;;;9.86
20867;BMP280;10593;48.398;10.698;2022-12-05T10:21:11;96324.69;;;9.88
20867;BMP280;10593;48.398;10.698;2022-12-05T10:23:56;96317.81;;;9.90
20867;BMP280;10593;48.398;10.698;2022-12-05T10:26:28;96316.94;;;9.92
20867;BMP280;10593;48.398;10.698;2022-12-05T10:31:46;96321.13;;;9.96
20867;BMP280;10593;48.398;10.698;2022-12-05T10:37:10;96315.94;;;10.01
20867;BMP280;10593;48.398;10.698;2022-12-05T10:39:38;96323.66;;;10.01
20867;BMP280;10593;48.398;10.698;2022-12-05T10:42:05;96314.22;;;10.03
20867;BMP280;10593;48.398;10.698;2022-12-05T10:44:32;96317.63;;;10.05
20867;BMP280;10593;48.398;10.698;2022-12-05T10:46:58;96325.31;;;10.06
20867;BMP280;10593;48.398;10.698;2022-12-05T10:49:25;96327.81;;;10.09
20867;BMP280;10593;48.398;10.698;2022-12-05T10:51:52;96323.50;;;10.11
20867;BMP280;10593;48.398;10.698;2022-12-05T10:54:24;96324.34;;;10.13
20867;BMP280;10593;48.398;10.698;2022-12-05T10:56:52;96320.88;;;10.16
20867;BMP280;10593;48.398;10.698;2022-12-05T10:59:25;96315.75;;;10.17
20867;BMP280;10593;48.398;10.698;2022-12-05T11:01:57;96325.97;;;10.19
20867;BMP280;10593;48.398;10.698;2022-12-05T11:04:39;96320.81;;;10.20
20867;BMP280;10593;48.398;10.698;2022-12-05T11:07:06;96316.56;;;10.19
20867;BMP280;10593;48.398;10.698;2022-12-05T11:09:47;96319.94;;;10.20
20867;BMP280;10593;48.398;10.698;2022-12-05T11:12:26;96314.78;;;10.23
20867;BMP280;10593;48.398;10.698;2022-12-05T11:17:41;96318.19;;;10.23
20867;BMP280;10593;48.398;10.698;2022-12-05T11:22:52;96317.31;;;10.26
20867;BMP280;10593;48.398;10.698;2022-12-05T11:27:57;96324.09;;;10.28
20867;BMP280;10593;48.398;10.698;2022-12-05T11:30:26;96330.97;;;10.29
20867;BMP280;10593;48.398;10.698;2022-12-05T11:33:21;96324.09;;;10.30
20867;BMP280;10593;48.398;10.698;2022-12-05T11:35:51;96318.94;;;10.30
20867;BMP280;10593;48.398;10.698;2022-12-05T11:38:21;96313.81;;;10.31
20867;BMP280;10593;48.398;10.698;2022-12-05T11:50:07;96311.22;;;10.31
20867;BMP280;10593;48.398;10.698;2022-12-05T11:56:16;96313.75;;;10.32
20867;BMP280;10593;48.398;10.698;2022-12-05T12:05:11;96313.75;;;10.32
20867;BMP280;10593;48.398;10.698;2022-12-05T12:10:51;96320.56;;;10.35
20867;BMP280;10593;48.398;10.698;2022-12-05T12:13:33;96318.88;;;10.36
20867;BMP280;10593;48.398;10.698;2022-12-05T12:19:42;96312.88;;;10.37
20867;BMP280;10593;48.398;10.698;2022-12-05T12:31:47;96312.81;;;10.38
20867;BMP280;10593;48.398;10.698;2022-12-05T12:37:42;96318.75;;;10.41
20867;BMP280;10593;48.398;10.698;2022-12-05T12:43:48;96311.88;;;10.43
20867;BMP280;10593;48.398;10.698;2022-12-05T12:46:50;96304.22;;;10.42
20867;BMP280;10593;48.398;10.698;2022-12-05T12:49:46;96302.47;;;10.44
20867;BMP280;10593;48.398;10.698;2022-12-05T12:52:22;96298.16;;;10.44
20867;BMP280;10593;48.398;10.698;2022-12-05T12:58:18;96301.53;;;10.46
20867;BMP280;10593;48.398;10.698;2022-12-05T13:01:05;96310.09;;;10.48
20867;BMP280;10593;48.398;10.698;2022-12-05T13:03:48;96309.22;;;10.49
20867;BMP280;10593;48.398;10.698;2022-12-05T13:06:27;96305.72;;;10.52
20867;BMP280;10593;48.398;10.698;2022-12-05T13:09:07;96298.88;;;10.52
20867;BMP280;10593;48.398;10.698;2022-12-05T13:11:39;96309.97;;;10.54
20867;BMP280;10593;48.398;10.698;2022-12-05T13:14:14;96314.25;;;10.55
20867;BMP280;10593;48.398;10.698;2022-12-05T13:16:47;96315.94;;;10.58
20867;BMP280;10593;48.398;10.698;2022-12-05T13:19:27;96315.88;;;10.59
20867;BMP280;10593;48.398;10.698;2022-12-05T13:21:57;96312.47;;;10.59
20867;BMP280;10593;48.398;10.698;2022-12-05T13:24:26;96306.41;;;10.61
20867;BMP280;10593;48.398;10.698;2022-12-05T13:26:59;96301.28;;;10.63
20867;BMP280;10593;48.398;10.698;2022-12-05T13:29:40;96295.25;;;10.64
20867;BMP280;10593;48.398;10.698;2022-12-05T13:32:34;96294.41;;;10.63
20867;BMP280;10593;48.398;10.698;2022-12-05T13:35:07;96294.38;;;10.65
20867;BMP280;10593;48.398;10.698;2022-12-05T13:37:35;96296.13;;;10.64
20867;BMP280;10593;48.398;10.698;2022-12-05T13:40:50;96299.56;;;10.63
20867;BMP280;10593;48.398;10.698;2022-12-05T13:43:42;96298.69;;;10.63
20867;BMP280;10593;48.398;10.698;2022-12-05T13:46:25;96302.09;;;10.65
20867;BMP280;10593;48.398;10.698;2022-12-05T13:49:01;96300.38;;;10.65
20867;BMP280;10593;48.398;10.698;2022-12-05T13:51:39;96301.22;;;10.66
20867;BMP280;10593;48.398;10.698;2022-12-05T13:54:18;96308.03;;;10.67
20867;BMP280;10593;48.398;10.698;2022-12-05T13:56:56;96314.03;;;10.69
20867;BMP280;10593;48.398;10.698;2022-12-05T14:00:20;96305.47;;;10.67
20867;BMP280;10593;48.398;10.698;2022-12-05T14:02:50;96306.34;;;10.67
20867;BMP280;10593;48.398;10.698;2022-12-05T14:07:56;96303.75;;;10.69
20867;BMP280;10593;48.398;10.698;2022-12-05T14:15:41;96297.69;;;10.71
20867;BMP280;10593;48.398;10.698;2022-12-05T14:21:04;96296.81;;;10.72
20867;BMP280;10593;48.398;10.698;2022-12-05T14:30:03;96302.81;;;10.71
20867;BMP280;10593;48.398;10.698;2022-12-05T14:32:40;96302.81;;;10.71
20867;BMP280;10593;48.398;10.698;2022-12-05T14:38:04;96317.38;;;10.72
20867;BMP280;10593;48.398;10.698;2022-12-05T14:40:41;96317.34;;;10.74
20867;BMP280;10593;48.398;10.698;2022-12-05T14:43:28;96321.63;;;10.73
20867;BMP280;10593;48.398;10.698;2022-12-05T14:46:05;96318.19;;;10.74
20867;BMP280;10593;48.398;10.698;2022-12-05T14:48:37;96323.31;;;10.74
20867;BMP280;10593;48.398;10.698;2022-12-05T14:54:15;96329.31;;;10.76
20867;BMP280;10593;48.398;10.698;2022-12-05T14:57:04;96336.16;;;10.77
20867;BMP280;10593;48.398;10.698;2022-12-05T14:59:51;96328.44;;;10.77
20867;BMP280;10593;48.398;10.698;2022-12-05T15:02:26;96326.75;;;10.76
20867;BMP280;10593;48.398;10.698;2022-12-05T15:05:29;96334.41;;;10.78
20867;BMP280;10593;48.398;10.698;2022-12-05T15:07:57;96334.47;;;10.76
20867;BMP280;10593;48.398;10.698;2022-12-05T15:10:40;96344.69;;;10.78
20867;BMP280;10593;48.398;10.698;2022-12-05T15:13:15;96342.13;;;10.78
20867;BMP280;10593;48.398;10.698;2022-12-05T15:16:04;96345.56;;;10.78
20867;BMP280;10593;48.398;10.698;2022-12-05T15:18:41;96348.94;;;10.79
20867;BMP280;10593;48.398;10.698;2022-12-05T15:21:32;96337.78;;;10.80
20867;BMP280;10593;48.398;10.698;2022-12-05T15:24:03;96343.78;;;10.80
20867;BMP280;10593;48.398;10.698;2022-12-05T15:26:44;96340.34;;;10.81
20867;BMP280;10593;48.398;10.698;2022-12-05T15:31:54;96339.50;;;10.81
20867;BMP280;10593;48.398;10.698;2022-12-05T15:35:00;96330.06;;;10.81
20867;BMP280;10593;48.398;10.698;2022-12-05T15:37:50;96328.38;;;10.80
20867;BMP280;10593;48.398;10.698;2022-12-05T15:40:20;96328.38;;;10.80
20867;BMP280;10593;48.398;10.698;2022-12-05T15:42:50;96327.50;;;10.81
20867;BMP280;10593;48.398;10.698;2022-12-05T15:45:25;96328.31;;;10.83
20867;BMP280;10593;48.398;10.698;2022-12-05T15:50:38;96329.19;;;10.82
20867;BMP280;10593;48.398;10.698;2022-12-05T15:53:17;96338.59;;;10.83
20867;BMP280;10593;48.398;10.698;2022-12-05T15:55:50;96332.63;;;10.81
20867;BMP280;10593;48.398;10.698;2022-12-05T15:58:54;96343.75;;;10.83
20867;BMP280;10593;48.398;10.698;2022-12-05T16:01:23;96336.91;;;10.81
20867;BMP280;10593;48.398;10.698;2022-12-05T16:04:03;96339.50;;;10.81
20867;BMP280;10593;48.398;10.698;2022-12-05T16:06:58;96338.66;;;10.80
20867;BMP280;10593;48.398;10.698;2022-12-05T16:09:31;96338.66;;;10.80
20867;BMP280;10593;48.398;10.698;2022-12-05T16:15:01;96347.25;;;10.79
20867;BMP280;10593;48.398;10.698;2022-12-05T16:17:41;96343.78;;;10.80
20867;BMP280;10593;48.398;10.698;2022-12-05T16:22:46;96341.22;;;10.80
20867;BMP280;10593;48.398;10.698;2022-12-05T16:25:22;96331.81;;;10.79
20867;BMP280;10593;48.398;10.698;2022-12-05T16:27:57;96325.81;;;10.80
20867;BMP280;10593;48.398;10.698;2022-12-05T16:30:25;96336.09;;;10.80
20867;BMP280;10593;48.398;10.698;2022-12-05T16:33:01;96334.41;;;10.79
20867;BMP280;10593;48.398;10.698;2022-12-05T16:38:13;96351.50;;;10.80
20867;BMP280;10593;48.398;10.698;2022-12-05T16:48:45;96345.59;;;10.75
20867;BMP280;10593;48.398;10.698;2022-12-05T16:51:22;96343.88;;;10.76
20867;BMP280;10593;48.398;10.698;2022-12-05T16:53:54;96349.03;;;10.74
20867;BMP280;10593;48.398;10.698;2022-12-05T16:56:32;96345.59;;;10.75
20867;BMP280;10593;48.398;10.698;2022-12-05T16:59:02;96345.59;;;10.75
20867;BMP280;10593;48.398;10.698;2022-12-05T17:01:28;96339.59;;;10.75
20867;BMP280;10593;48.398;10.698;2022-12-05T17:03:55;96336.16;;;10.74